createdAt,value
2019-01-27T00:01:08.966Z,79.80
2019-01-27T00:03:38.520Z,80.20
2019-01-27T00:06:07.637Z,80.20
2019-01-27T00:08:36.815Z,80.40
2019-01-27T00:11:05.695Z,80.20
2019-01-27T00:13:34.599Z,80.00
2019-01-27T00:16:03.410Z,80.00
2019-01-27T00:18:32.305Z,80.10
2019-01-27T00:21:01.076Z,79.90
2019-01-27T00:23:30.017Z,80.10
2019-01-27T00:25:59.609Z,80.00
2019-01-27T00:28:28.467Z,80.10
2019-01-27T00:30:57.978Z,80.00
2019-01-27T00:33:26.898Z,80.00
2019-01-27T00:35:55.894Z,80.00
2019-01-27T00:38:24.783Z,80.20
2019-01-27T00:40:53.727Z,80.20
2019-01-27T00:43:22.786Z,80.00
2019-01-27T00:45:54.375Z,79.80
2019-01-27T00:48:23.129Z,79.50
2019-01-27T00:50:52.024Z,79.40
2019-01-27T00:53:21.624Z,79.40
2019-01-27T00:55:50.691Z,79.60
2019-01-27T00:58:21.559Z,79.10
2019-01-27T01:00:52.166Z,79.50
2019-01-27T01:03:22.447Z,79.30
2019-01-27T01:05:52.832Z,79.20
2019-01-27T01:08:22.252Z,78.90
2019-01-27T01:10:51.357Z,79.10
2019-01-27T01:13:21.632Z,79.00
2019-01-27T01:15:53.298Z,78.90
2019-01-27T01:18:22.257Z,79.10
2019-01-27T01:20:52.583Z,79.00
2019-01-27T01:23:24.423Z,78.80
2019-01-27T01:25:53.188Z,79.20
2019-01-27T01:28:21.991Z,79.20
2019-01-27T01:30:50.958Z,79.20
2019-01-27T01:33:20.495Z,79.40
2019-01-27T01:35:51.107Z,79.40
2019-01-27T01:38:20.244Z,79.20
2019-01-27T01:40:52.079Z,78.90
2019-01-27T01:43:21.030Z,79.00
2019-01-27T01:45:51.670Z,78.90
2019-01-27T01:48:23.236Z,78.90
2019-01-27T01:50:52.137Z,79.30
2019-01-27T01:53:21.284Z,79.40
2019-01-27T01:55:50.819Z,79.40
2019-01-27T01:58:19.760Z,78.90
2019-01-27T02:00:48.944Z,78.60
2019-01-27T02:03:17.870Z,79.00
2019-01-27T02:05:46.664Z,79.00
2019-01-27T02:08:15.446Z,79.20
2019-01-27T02:10:44.618Z,78.90
2019-01-27T02:13:13.530Z,78.40
2019-01-27T02:15:46.865Z,78.40
2019-01-27T02:18:15.994Z,78.10
2019-01-27T02:20:44.733Z,78.30
2019-01-27T02:23:13.688Z,78.20
2019-01-27T02:25:42.500Z,78.00
2019-01-27T02:28:11.568Z,78.10
2019-01-27T02:30:40.475Z,78.40
2019-01-27T02:33:09.355Z,78.30
2019-01-27T02:35:38.754Z,78.70
2019-01-27T02:38:08.602Z,78.70
2019-01-27T02:40:57.037Z,78.50
2019-01-27T02:43:25.842Z,78.70
2019-01-27T02:45:54.876Z,79.00
2019-01-27T02:48:23.845Z,79.40
2019-01-27T02:50:52.673Z,79.60
2019-01-27T02:53:21.738Z,79.30
2019-01-27T02:55:50.956Z,79.70
2019-01-27T02:58:20.194Z,79.80
2019-01-27T03:00:49.555Z,79.70
2019-01-27T03:03:18.890Z,79.70
2019-01-27T03:05:55.235Z,79.80
2019-01-27T03:08:24.246Z,79.80
2019-01-27T03:10:53.141Z,80.00
2019-01-27T03:13:22.045Z,80.00
2019-01-27T03:15:51.120Z,79.90
2019-01-27T03:18:21.523Z,80.00
2019-01-27T03:20:51.144Z,79.40
2019-01-27T03:23:20.743Z,79.80
2019-01-27T03:25:51.444Z,80.20
2019-01-27T03:28:20.929Z,79.80
2019-01-27T03:30:49.921Z,79.90
2019-01-27T03:33:19.069Z,80.10
2019-01-27T03:35:47.997Z,80.00
2019-01-27T03:38:17.149Z,80.00
2019-01-27T03:40:46.048Z,79.90
2019-01-27T03:43:15.142Z,79.70
2019-01-27T03:45:44.168Z,79.70
2019-01-27T03:48:13.060Z,80.00
2019-01-27T03:50:42.708Z,80.00
2019-01-27T03:53:11.653Z,80.00
2019-01-27T03:55:42.984Z,80.20
2019-01-27T03:58:11.800Z,80.40
2019-01-27T04:00:40.837Z,80.20
2019-01-27T04:03:09.896Z,80.00
2019-01-27T04:05:38.972Z,80.10
2019-01-27T04:08:08.017Z,80.00
2019-01-27T04:10:36.867Z,79.80
2019-01-27T04:13:05.795Z,79.10
2019-01-27T04:15:34.652Z,78.80
2019-01-27T04:18:03.591Z,78.50
2019-01-27T04:20:32.363Z,78.60
2019-01-27T04:23:01.705Z,78.60
2019-01-27T04:25:30.847Z,78.40
2019-01-27T04:27:59.808Z,77.90
2019-01-27T04:30:33.261Z,78.00
2019-01-27T04:33:02.103Z,78.10
2019-01-27T04:35:31.135Z,77.90
2019-01-27T04:38:00.058Z,77.80
2019-01-27T04:40:28.921Z,77.50
2019-01-27T04:42:58.387Z,76.90
2019-01-27T04:45:34.888Z,77.10
2019-01-27T04:48:04.288Z,77.30
2019-01-27T04:50:33.441Z,77.30
2019-01-27T04:53:02.253Z,77.10
2019-01-27T04:55:31.306Z,76.90
2019-01-27T04:58:00.254Z,76.80
2019-01-27T05:00:29.689Z,76.60
2019-01-27T05:03:00.925Z,76.40
2019-01-27T05:05:29.940Z,76.40
2019-01-27T05:07:58.825Z,76.90
2019-01-27T05:10:27.691Z,76.50
2019-01-27T05:12:56.740Z,76.20
2019-01-27T05:15:27.142Z,76.00
2019-01-27T05:17:56.070Z,75.80
2019-01-27T05:20:24.954Z,75.80
2019-01-27T05:22:53.708Z,75.70
2019-01-27T05:25:23.710Z,75.10
2019-01-27T05:27:52.449Z,74.70
2019-01-27T05:30:23.729Z,74.50
2019-01-27T05:32:52.634Z,74.20
2019-01-27T05:35:21.693Z,73.90
2019-01-27T05:37:51.095Z,74.10
2019-01-27T05:40:22.330Z,74.00
2019-01-27T05:42:51.307Z,73.90
2019-01-27T05:45:24.675Z,73.50
2019-01-27T05:47:53.742Z,73.50
2019-01-27T05:50:22.664Z,73.70
2019-01-27T05:52:51.727Z,73.50
2019-01-27T05:55:24.237Z,73.80
2019-01-27T05:57:53.348Z,73.60
2019-01-27T06:00:26.008Z,73.60
2019-01-27T06:02:55.243Z,73.20
2019-01-27T06:05:24.188Z,73.70
2019-01-27T06:07:53.176Z,73.30
2019-01-27T06:10:22.347Z,73.20
2019-01-27T06:12:52.657Z,74.10
2019-01-27T06:15:21.787Z,73.30
2019-01-27T06:17:53.687Z,73.70
2019-01-27T06:20:22.726Z,73.70
2019-01-27T06:22:51.629Z,74.10
2019-01-27T06:25:21.451Z,74.60
2019-01-27T06:27:51.065Z,74.40
2019-01-27T06:30:25.496Z,74.00
2019-01-27T06:33:01.876Z,74.20
2019-01-27T06:35:30.686Z,74.10
2019-01-27T06:37:59.655Z,74.30
2019-01-27T06:40:28.417Z,74.20
2019-01-27T06:42:57.273Z,74.10
2019-01-27T06:45:26.445Z,74.30
2019-01-27T06:47:55.791Z,74.40
2019-01-27T06:50:24.678Z,73.90
2019-01-27T06:52:53.579Z,73.60
2019-01-27T06:55:23.264Z,73.30
2019-01-27T06:57:52.049Z,73.20
2019-01-27T07:00:39.344Z,73.30
2019-01-27T07:03:26.373Z,73.20
2019-01-27T07:05:56.927Z,73.50
2019-01-27T07:08:30.430Z,73.90
2019-01-27T07:11:16.661Z,73.80
2019-01-27T07:13:52.995Z,73.40
2019-01-27T07:16:32.228Z,73.20
2019-01-27T07:19:02.670Z,73.50
2019-01-27T07:21:33.174Z,73.80
2019-01-27T07:24:06.381Z,73.90
2019-01-27T07:26:40.222Z,73.60
2019-01-27T07:29:10.705Z,73.80
2019-01-27T07:31:41.296Z,73.90
2019-01-27T07:34:14.486Z,73.60
2019-01-27T07:36:45.225Z,73.70
2019-01-27T07:39:15.773Z,73.60
2019-01-27T07:41:49.651Z,73.80
2019-01-27T07:44:35.208Z,74.00
2019-01-27T07:47:05.815Z,73.80
2019-01-27T07:49:42.473Z,73.60
2019-01-27T07:52:18.914Z,73.60
2019-01-27T07:54:52.333Z,73.70
2019-01-27T07:57:31.744Z,73.80
2019-01-27T08:00:02.211Z,73.70
2019-01-27T08:02:32.878Z,73.60
2019-01-27T08:05:03.308Z,74.10
2019-01-27T08:07:39.785Z,73.80
2019-01-27T08:10:26.159Z,73.50
2019-01-27T08:12:56.521Z,73.60
2019-01-27T08:15:26.974Z,73.90
2019-01-27T08:17:57.370Z,73.50
2019-01-27T08:20:33.817Z,73.40
2019-01-27T08:23:04.422Z,73.60
2019-01-27T08:25:37.594Z,73.70
2019-01-27T08:28:27.913Z,73.40
2019-01-27T08:31:01.231Z,73.50
2019-01-27T08:33:31.775Z,73.70
2019-01-27T08:36:02.482Z,73.60
2019-01-27T08:38:32.996Z,73.70
2019-01-27T08:41:06.695Z,73.80
2019-01-27T08:43:37.318Z,74.50
2019-01-27T08:46:08.057Z,74.00
2019-01-27T08:48:36.949Z,74.00
2019-01-27T08:51:05.940Z,73.90
2019-01-27T08:53:34.997Z,73.90
2019-01-27T08:56:04.224Z,73.70
2019-01-27T08:58:33.296Z,73.70
2019-01-27T09:01:03.885Z,73.90
2019-01-27T09:03:37.388Z,74.30
2019-01-27T09:06:23.581Z,74.60
2019-01-27T09:08:56.508Z,74.50
2019-01-27T09:11:29.582Z,74.10
2019-01-27T09:14:05.788Z,74.20
2019-01-27T09:16:36.425Z,73.90
2019-01-27T09:19:13.015Z,73.90
2019-01-27T09:21:43.486Z,73.90
2019-01-27T09:24:23.222Z,74.00
2019-01-27T09:26:59.660Z,74.30
2019-01-27T09:29:36.283Z,74.40
2019-01-27T09:32:06.779Z,74.90
2019-01-27T09:34:39.983Z,74.60
2019-01-27T09:37:10.336Z,74.60
2019-01-27T09:39:58.930Z,74.50
2019-01-27T09:42:45.620Z,74.70
2019-01-27T09:45:16.360Z,74.70
2019-01-27T09:47:46.723Z,74.30
2019-01-27T09:50:17.225Z,74.40
2019-01-27T09:52:47.957Z,75.20
2019-01-27T09:55:34.677Z,74.30
2019-01-27T09:58:11.140Z,74.60
2019-01-27T10:00:41.838Z,74.70
2019-01-27T10:03:27.924Z,74.80
2019-01-27T10:06:01.504Z,74.70
2019-01-27T10:08:37.963Z,74.60
2019-01-27T10:11:08.619Z,74.80
2019-01-27T10:13:57.179Z,74.80
2019-01-27T10:16:27.787Z,74.70
2019-01-27T10:22:06.392Z,74.90
2019-01-27T10:24:42.027Z,75.30
2019-01-27T10:27:12.145Z,75.20
2019-01-27T10:29:42.792Z,74.50
2019-01-27T10:32:16.163Z,74.60
2019-01-27T10:34:46.721Z,74.70
2019-01-27T10:37:23.002Z,74.50
2019-01-27T10:39:56.119Z,74.60
2019-01-27T10:42:29.446Z,74.40
2019-01-27T10:45:00.203Z,74.40
2019-01-27T10:47:30.746Z,74.40
2019-01-27T10:50:03.840Z,74.20
2019-01-27T10:52:34.469Z,73.90
2019-01-27T10:55:05.728Z,73.90
2019-01-27T10:57:36.430Z,74.30
2019-01-27T11:00:10.213Z,74.60
2019-01-27T11:02:56.995Z,74.60
2019-01-27T11:05:43.789Z,74.70
2019-01-27T11:08:19.652Z,75.00
2019-01-27T11:10:50.156Z,74.80
2019-01-27T11:13:32.235Z,74.50
2019-01-27T11:16:08.700Z,74.60
2019-01-27T11:18:47.938Z,74.70
2019-01-27T11:21:18.766Z,74.80
2019-01-27T11:23:52.212Z,75.10
2019-01-27T11:26:35.028Z,75.30
2019-01-27T11:29:08.439Z,75.50
2019-01-27T11:31:44.566Z,75.50
2019-01-27T11:34:26.866Z,75.70
2019-01-27T11:37:00.102Z,75.60
2019-01-27T11:42:23.159Z,75.60
2019-01-27T11:44:54.100Z,75.80
2019-01-27T11:47:24.498Z,75.70
2019-01-27T11:49:58.438Z,76.00
2019-01-27T11:52:27.707Z,76.40
2019-01-27T11:54:56.628Z,76.20
2019-01-27T11:57:25.539Z,76.40
2019-01-27T11:59:57.518Z,76.30
2019-01-27T12:02:26.172Z,76.40
2019-01-27T12:04:54.969Z,76.50
2019-01-27T12:07:23.737Z,76.80
2019-01-27T12:09:52.937Z,76.90
2019-01-27T12:12:25.872Z,76.90
2019-01-27T12:14:54.903Z,77.00
2019-01-27T12:17:23.866Z,77.20
2019-01-27T12:19:52.951Z,77.10
2019-01-27T12:22:21.681Z,77.30
2019-01-27T12:24:53.366Z,77.20
2019-01-27T12:27:22.075Z,77.40
2019-01-27T12:29:53.695Z,77.50
2019-01-27T12:32:22.628Z,77.50
2019-01-27T12:34:51.679Z,77.70
2019-01-27T12:37:20.611Z,78.00
2019-01-27T12:39:49.840Z,78.20
2019-01-27T12:42:19.095Z,78.20
2019-01-27T12:44:48.016Z,78.40
2019-01-27T12:47:17.288Z,78.90
2019-01-27T12:49:46.278Z,78.70
2019-01-27T12:52:15.038Z,78.60
2019-01-27T12:54:44.383Z,78.40
2019-01-27T12:57:13.408Z,78.40
2019-01-27T12:59:42.458Z,78.70
2019-01-27T13:02:11.294Z,79.00
2019-01-27T13:04:40.341Z,79.10
2019-01-27T13:07:09.444Z,79.40
2019-01-27T13:09:38.230Z,79.60
2019-01-27T13:12:07.363Z,79.70
2019-01-27T13:14:36.181Z,79.50
2019-01-27T13:17:07.546Z,79.80
2019-01-27T13:19:35.625Z,79.80
2019-01-27T13:22:04.514Z,80.00
2019-01-27T13:24:33.409Z,80.20
2019-01-27T13:27:02.376Z,80.20
2019-01-27T13:29:31.550Z,80.20
2019-01-27T13:32:00.372Z,80.50
2019-01-27T13:34:29.145Z,81.50
2019-01-27T13:36:58.290Z,80.80
2019-01-27T13:39:27.302Z,80.80
2019-01-27T13:41:56.065Z,80.60
2019-01-27T13:44:25.010Z,80.60
2019-01-27T13:46:53.805Z,80.70
2019-01-27T13:49:22.674Z,80.70
2019-01-27T13:51:53.128Z,80.70
2019-01-27T13:54:22.076Z,80.70
2019-01-27T13:56:51.338Z,80.50
2019-01-27T13:59:20.204Z,80.50
2019-01-27T14:01:49.501Z,80.60
2019-01-27T14:04:21.226Z,80.80
2019-01-27T14:06:50.053Z,80.80
2019-01-27T14:09:19.173Z,81.30
2019-01-27T14:11:50.972Z,81.60
2019-01-27T14:14:20.131Z,82.00
2019-01-27T14:16:49.520Z,82.10
2019-01-27T14:19:18.387Z,82.10
2019-01-27T14:21:47.222Z,81.80
2019-01-27T14:24:15.962Z,81.60
2019-01-27T14:26:44.858Z,81.50
2019-01-27T14:29:13.610Z,82.00
2019-01-27T14:31:42.533Z,82.00
2019-01-27T14:34:11.376Z,81.90
2019-01-27T14:36:40.234Z,81.90
2019-01-27T14:39:09.447Z,81.90
2019-01-27T14:41:38.176Z,82.00
2019-01-27T14:44:06.984Z,82.10
2019-01-27T14:46:35.899Z,82.30
2019-01-27T14:49:04.990Z,82.00
2019-01-27T14:51:34.127Z,82.00
2019-01-27T14:54:03.088Z,82.00
2019-01-27T14:56:32.011Z,81.80
2019-01-27T14:59:01.109Z,81.60
2019-01-27T15:01:29.841Z,81.70
2019-01-27T15:03:58.825Z,81.90
2019-01-27T15:06:27.893Z,81.90
2019-01-27T15:08:56.687Z,81.90
2019-01-27T15:11:26.125Z,81.80
2019-01-27T15:13:55.023Z,82.00
2019-01-27T15:16:23.944Z,81.80
2019-01-27T15:18:52.755Z,82.00
2019-01-27T15:21:21.495Z,82.20
2019-01-27T15:23:50.605Z,82.20
2019-01-27T15:26:19.548Z,82.20
2019-01-27T15:28:48.478Z,82.50
2019-01-27T15:31:17.400Z,82.30
2019-01-27T15:33:46.218Z,82.40
2019-01-27T15:36:15.042Z,82.30
2019-01-27T15:38:43.979Z,82.10
2019-01-27T15:41:13.082Z,82.20
2019-01-27T15:43:48.388Z,82.10
2019-01-27T15:46:12.240Z,82.20
2019-01-27T15:48:41.033Z,82.00
2019-01-27T15:51:09.834Z,82.10
2019-01-27T15:53:38.777Z,82.30
2019-01-27T15:56:07.585Z,82.30
2019-01-27T15:58:36.422Z,82.20
2019-01-27T16:01:07.466Z,82.30
2019-01-27T16:03:36.519Z,82.40
2019-01-27T16:06:06.649Z,82.70
2019-01-27T16:08:35.692Z,83.00
2019-01-27T16:11:04.914Z,82.70
2019-01-27T16:13:33.803Z,82.70
2019-01-27T16:16:02.623Z,83.00
2019-01-27T16:18:31.700Z,83.00
2019-01-27T16:21:00.711Z,82.80
2019-01-27T16:23:31.613Z,82.50
2019-01-27T16:26:01.611Z,82.70
2019-01-27T16:28:30.357Z,82.70
2019-01-27T16:31:13.010Z,83.00
2019-01-27T16:33:43.391Z,83.00
2019-01-27T16:36:12.248Z,83.10
2019-01-27T16:38:41.479Z,83.20
2019-01-27T16:41:10.283Z,83.40
2019-01-27T16:43:39.048Z,83.40
2019-01-27T16:46:07.960Z,83.20
2019-01-27T16:48:36.780Z,83.40
2019-01-27T16:51:05.734Z,83.70
2019-01-27T16:53:34.859Z,83.70
2019-01-27T16:56:04.044Z,83.60
2019-01-27T16:58:32.933Z,83.60
2019-01-27T17:01:01.690Z,83.80
2019-01-27T17:03:31.328Z,84.00
2019-01-27T17:06:00.168Z,84.00
2019-01-27T17:08:29.157Z,84.10
2019-01-27T17:11:00.911Z,84.20
2019-01-27T17:13:29.708Z,84.20
2019-01-27T17:15:58.493Z,84.40
2019-01-27T17:18:27.613Z,84.40
2019-01-27T17:20:56.430Z,84.50
2019-01-27T17:23:25.324Z,84.50
2019-01-27T17:25:56.917Z,84.60
2019-01-27T17:28:25.558Z,84.80
2019-01-27T17:30:56.779Z,84.80
2019-01-27T17:33:43.755Z,85.00
2019-01-27T17:36:13.839Z,85.10
2019-01-27T17:38:42.899Z,84.80
2019-01-27T17:41:12.002Z,84.70
2019-01-27T17:43:41.180Z,84.60
2019-01-27T17:46:10.436Z,84.90
2019-01-27T17:48:40.030Z,85.20
2019-01-27T17:51:13.476Z,85.30
2019-01-27T17:53:45.651Z,85.60
2019-01-27T17:56:14.636Z,85.40
2019-01-27T17:58:54.422Z,85.40
2019-01-27T18:01:24.680Z,85.30
2019-01-27T18:03:57.059Z,85.40
2019-01-27T18:06:27.601Z,85.60
2019-01-27T18:09:10.187Z,85.60
2019-01-27T18:11:43.921Z,85.50
2019-01-27T18:14:16.626Z,85.60
2019-01-27T18:16:46.526Z,85.70
2019-01-27T18:19:15.557Z,85.80
2019-01-27T18:21:44.374Z,85.80
2019-01-27T18:24:13.960Z,85.90
2019-01-27T18:26:44.295Z,86.10
2019-01-27T18:29:13.070Z,86.10
2019-01-27T18:31:41.987Z,86.20
2019-01-27T18:34:11.210Z,86.30
2019-01-27T18:36:40.209Z,86.30
2019-01-27T18:39:10.812Z,86.40
2019-01-27T18:41:40.611Z,86.40
2019-01-27T18:44:10.280Z,86.50
2019-01-27T18:46:39.030Z,86.80
2019-01-27T18:49:08.744Z,86.80
2019-01-27T18:51:37.981Z,86.90
2019-01-27T18:54:20.634Z,87.10
2019-01-27T18:57:04.467Z,87.10
2019-01-27T18:59:40.795Z,87.20
2019-01-27T19:02:16.948Z,87.10
2019-01-27T19:05:03.860Z,87.30
2019-01-27T19:07:37.542Z,87.30
2019-01-27T19:10:13.859Z,87.40
2019-01-27T19:12:44.433Z,88.00
2019-01-27T19:18:16.449Z,87.50
2019-01-27T19:20:56.177Z,87.50
2019-01-27T19:23:42.076Z,87.50
2019-01-27T19:26:30.499Z,87.70
2019-01-27T19:29:06.590Z,87.80
2019-01-27T19:31:45.663Z,87.90
2019-01-27T19:34:25.107Z,87.90
2019-01-27T19:37:12.134Z,88.00
2019-01-27T19:40:02.250Z,88.00
2019-01-27T19:42:40.875Z,88.10
2019-01-27T19:45:22.048Z,88.10
2019-01-27T19:47:56.155Z,88.20
2019-01-27T19:50:27.505Z,88.40
2019-01-27T19:53:11.087Z,88.60
2019-01-27T19:55:42.677Z,88.60
2019-01-27T19:58:14.505Z,88.60
2019-01-27T20:00:49.486Z,88.60
2019-01-27T20:03:22.728Z,88.70
2019-01-27T20:06:12.193Z,88.80
2019-01-27T20:09:02.419Z,88.90
2019-01-27T20:11:51.558Z,89.00
2019-01-27T20:14:39.330Z,89.10
2019-01-27T20:17:10.449Z,89.10
2019-01-27T20:19:47.419Z,89.10
2019-01-27T20:22:17.875Z,89.10
2019-01-27T20:24:51.900Z,89.30
2019-01-27T20:27:25.262Z,89.30
2019-01-27T20:29:55.914Z,89.30
2019-01-27T20:32:44.783Z,89.30
2019-01-27T20:35:18.352Z,89.40
2019-01-27T20:37:49.279Z,89.40
2019-01-27T20:40:20.024Z,89.40
2019-01-27T20:42:53.655Z,89.40
2019-01-27T20:45:40.083Z,89.50
2019-01-27T20:48:13.021Z,89.50
2019-01-27T20:50:49.410Z,89.60
2019-01-27T20:53:25.737Z,89.70
2019-01-27T20:56:11.304Z,89.70
2019-01-27T20:58:42.814Z,89.70
2019-01-27T21:01:21.037Z,90.00
2019-01-27T21:03:54.310Z,89.90
2019-01-27T21:06:33.520Z,90.00
2019-01-27T21:09:10.035Z,90.00
2019-01-27T21:11:43.583Z,90.10
2019-01-27T21:14:14.392Z,90.00
2019-01-27T21:16:50.862Z,90.00
2019-01-27T21:19:22.814Z,90.00
2019-01-27T21:21:53.030Z,90.10
2019-01-27T21:24:21.925Z,90.10
2019-01-27T21:26:51.216Z,90.10
2019-01-27T21:29:20.512Z,90.10
2019-01-27T21:31:50.250Z,90.10
2019-01-27T21:34:19.721Z,90.20
2019-01-27T21:36:49.387Z,90.20
2019-01-27T21:39:18.470Z,90.20
2019-01-27T21:41:48.576Z,90.20
2019-01-27T21:44:17.644Z,90.20
2019-01-27T21:46:46.396Z,90.20
2019-01-27T21:49:15.278Z,90.20
2019-01-27T21:51:44.665Z,90.20
2019-01-27T21:54:13.633Z,90.20
2019-01-27T21:56:43.027Z,90.30
2019-01-27T21:59:11.927Z,90.30
2019-01-27T22:01:40.977Z,90.30
2019-01-27T22:04:10.014Z,90.30
2019-01-27T22:06:39.379Z,90.40
2019-01-27T22:09:09.145Z,90.40
2019-01-27T22:11:38.350Z,90.40
2019-01-27T22:14:07.332Z,90.40
2019-01-27T22:16:36.257Z,90.40
2019-01-27T22:19:05.266Z,90.40
2019-01-27T22:21:34.253Z,90.40
2019-01-27T22:24:03.258Z,90.40
2019-01-27T22:26:32.447Z,90.40
2019-01-27T22:29:01.456Z,90.50
2019-01-27T22:31:30.479Z,90.50
2019-01-27T22:33:59.268Z,90.40
2019-01-27T22:36:28.285Z,90.40
2019-01-27T22:38:57.103Z,90.40
2019-01-27T22:41:25.855Z,90.70
2019-01-27T22:43:54.908Z,90.40
2019-01-27T22:46:23.994Z,90.40
2019-01-27T22:48:52.920Z,90.50
2019-01-27T22:51:21.956Z,90.50
2019-01-27T22:53:51.268Z,90.60
2019-01-27T22:56:20.887Z,90.70
2019-01-27T22:58:53.056Z,90.70
2019-01-27T23:01:22.046Z,90.60
2019-01-27T23:03:50.883Z,90.60
2019-01-27T23:06:19.859Z,90.60
2019-01-27T23:08:49.144Z,90.60
2019-01-27T23:11:18.491Z,90.60
2019-01-27T23:13:48.989Z,90.60
2019-01-27T23:16:17.970Z,90.60
2019-01-27T23:18:47.493Z,90.70
2019-01-27T23:21:16.253Z,90.60
2019-01-27T23:23:45.623Z,90.70
2019-01-27T23:26:14.527Z,90.70
2019-01-27T23:28:44.870Z,90.70
2019-01-27T23:31:13.791Z,90.80
2019-01-27T23:33:42.857Z,90.80
2019-01-27T23:36:12.064Z,90.80
2019-01-27T23:38:41.327Z,90.80
2019-01-27T23:41:10.165Z,90.80
2019-01-27T23:43:39.041Z,90.80
2019-01-27T23:46:08.135Z,90.80
2019-01-27T23:48:37.026Z,90.80
2019-01-27T23:51:05.944Z,90.90
2019-01-27T23:53:34.726Z,90.90
2019-01-27T23:56:03.791Z,90.80
2019-01-27T23:58:32.642Z,90.80
